createdAt,value
2018-01-05T18:48:23.851Z,22.22
2018-01-05T18:49:23.789Z,22.20
2018-01-05T18:50:40.627Z,22.25
2018-01-05T18:51:40.619Z,22.29
2018-01-05T18:53:33.870Z,22.54
2018-01-05T18:54:33.694Z,22.54
2018-01-05T18:56:26.676Z,22.45
2018-01-05T18:57:26.629Z,22.39
2018-01-05T18:59:19.468Z,22.32
2018-01-05T19:00:19.427Z,22.33
2018-01-05T19:02:12.660Z,22.26
2018-01-05T19:08:37.428Z,22.43
2018-01-05T19:09:37.344Z,22.39
2018-01-05T19:11:30.511Z,22.54
2018-01-05T19:12:30.445Z,22.60
2018-01-05T19:14:23.440Z,22.53
2018-01-05T19:15:23.387Z,22.65
2018-01-05T19:17:16.398Z,22.65
2018-01-05T19:18:58.189Z,22.53
2018-01-05T19:21:27.413Z,22.07
2018-01-05T19:22:27.384Z,21.76
2018-01-05T19:24:20.317Z,21.58
2018-01-05T19:25:20.297Z,21.46
2018-01-05T19:27:13.267Z,21.50
2018-01-05T19:28:13.218Z,21.40
2018-01-05T19:30:06.096Z,21.30
2018-01-05T19:31:06.044Z,21.36
2018-01-05T19:32:59.032Z,21.32
2018-01-05T19:33:58.995Z,21.33
2018-01-05T19:35:53.916Z,21.36
2018-01-05T19:36:51.945Z,21.36
2018-01-05T19:38:44.768Z,21.30
2018-01-05T19:39:44.761Z,21.33
2018-01-05T19:41:37.581Z,21.37
2018-01-05T19:42:37.546Z,21.35
2018-01-05T19:44:30.498Z,21.35
2018-01-05T19:45:30.481Z,21.32
2018-01-05T19:47:23.479Z,21.27
2018-01-05T19:48:23.423Z,21.30
2018-01-05T19:50:16.646Z,21.25
2018-01-05T19:51:16.498Z,21.22
2018-01-05T19:53:09.483Z,21.27
2018-01-05T19:54:09.465Z,21.21
2018-01-05T19:56:02.813Z,21.21
2018-01-05T19:57:02.674Z,21.30
2018-01-05T19:58:55.649Z,21.21
2018-01-05T19:59:55.599Z,21.25
2018-01-05T20:01:48.597Z,21.18
2018-01-05T20:02:48.526Z,21.24
2018-01-05T20:04:41.684Z,21.22
2018-01-05T20:05:41.663Z,21.15
2018-01-05T20:07:34.664Z,21.09
2018-01-05T20:08:34.612Z,21.22
2018-01-05T20:10:27.418Z,21.21
2018-01-05T20:11:27.384Z,21.07
2018-01-05T20:13:20.561Z,21.18
2018-01-05T20:14:20.499Z,21.09
2018-01-05T20:16:13.483Z,21.07
2018-01-05T20:17:13.439Z,21.12
2018-01-05T20:19:06.460Z,21.15
2018-01-05T20:20:06.389Z,21.06
2018-01-05T20:21:59.223Z,21.14
2018-01-05T20:22:59.189Z,21.11
2018-01-05T20:24:52.190Z,21.11
2018-01-05T20:25:52.117Z,21.14
2018-01-05T20:27:45.078Z,21.07
2018-01-05T20:28:45.064Z,21.11
2018-01-05T20:30:38.306Z,21.09
2018-01-05T20:31:38.206Z,21.05
2018-01-05T20:33:31.178Z,21.12
2018-01-05T20:34:31.113Z,21.11
2018-01-05T20:36:24.090Z,21.24
2018-01-05T20:37:24.055Z,21.22
2018-01-05T20:39:16.910Z,21.07
2018-01-05T20:40:16.855Z,21.14
2018-01-05T20:42:09.806Z,21.14
2018-01-05T20:43:09.760Z,21.09
2018-01-05T20:45:02.742Z,21.11
2018-01-05T20:46:02.704Z,21.03
2018-01-05T20:47:55.522Z,21.06
2018-01-05T20:48:55.496Z,21.00
2018-01-05T20:50:48.614Z,21.07
2018-01-05T20:51:48.433Z,21.11
2018-01-05T20:53:41.399Z,21.00
2018-01-05T20:54:41.393Z,21.17
2018-01-05T20:56:34.410Z,21.11
2018-01-05T20:57:34.339Z,20.99
2018-01-05T20:59:27.278Z,21.05
2018-01-05T21:00:27.252Z,21.09
2018-01-05T21:02:20.240Z,21.09
2018-01-05T21:03:20.185Z,21.05
2018-01-05T21:05:13.146Z,21.03
2018-01-05T21:06:13.219Z,21.15
2018-01-05T21:08:05.945Z,21.18
2018-01-05T21:09:05.927Z,21.11
2018-01-05T21:10:58.785Z,21.12
2018-01-05T21:11:58.695Z,21.07
2018-01-05T21:13:51.667Z,21.11
2018-01-05T21:14:51.635Z,21.06
2018-01-05T21:16:44.679Z,21.03
2018-01-05T21:17:44.570Z,20.99
2018-01-05T21:19:37.786Z,21.05
2018-01-05T21:20:37.727Z,21.11
2018-01-05T21:22:30.706Z,21.05
2018-01-05T21:23:30.666Z,21.06
2018-01-05T21:25:23.664Z,21.00
2018-01-05T21:26:23.641Z,21.03
2018-01-05T21:28:16.473Z,20.99
2018-01-05T21:29:16.436Z,21.03
2018-01-05T21:31:09.430Z,21.03
2018-01-05T21:32:09.399Z,21.02
2018-01-05T21:34:02.353Z,21.03
2018-01-05T21:35:02.330Z,21.00
2018-01-05T21:36:55.507Z,20.97
2018-01-05T21:37:55.309Z,20.93
2018-01-05T21:39:48.275Z,20.97
2018-01-05T21:40:48.244Z,21.00
2018-01-05T21:42:41.079Z,20.97
2018-01-05T21:43:41.025Z,21.00
2018-01-05T21:45:33.973Z,21.02
2018-01-05T21:46:33.945Z,20.95
2018-01-05T21:48:26.901Z,20.97
2018-01-05T21:49:26.774Z,20.90
2018-01-05T21:51:19.754Z,20.90
2018-01-05T21:52:19.721Z,20.92
2018-01-05T21:54:12.573Z,20.88
2018-01-05T21:55:12.528Z,20.84
2018-01-05T21:57:05.500Z,20.88
2018-01-05T21:58:05.455Z,20.90
2018-01-05T21:59:58.299Z,20.87
2018-01-05T22:00:58.246Z,20.97
2018-01-05T22:02:51.234Z,20.93
2018-01-05T22:03:51.205Z,20.90
2018-01-05T22:05:44.234Z,20.87
2018-01-05T22:06:44.163Z,20.85
2018-01-05T22:08:37.344Z,20.88
2018-01-05T22:09:37.215Z,20.90
2018-01-05T22:11:30.209Z,20.92
2018-01-05T22:12:30.179Z,20.90
2018-01-05T22:14:23.179Z,20.78
2018-01-05T22:15:23.104Z,20.95
2018-01-05T22:17:15.934Z,20.95
2018-01-05T22:18:15.923Z,20.80
2018-01-05T22:20:08.878Z,20.95
2018-01-05T22:21:08.870Z,20.92
2018-01-05T22:23:01.925Z,20.84
2018-01-05T22:24:01.910Z,20.88
2018-01-05T22:25:54.744Z,20.88
2018-01-05T22:26:54.698Z,20.93
2018-01-05T22:28:47.689Z,20.93
2018-01-05T22:29:47.640Z,20.88
2018-01-05T22:31:40.619Z,20.80
2018-01-05T22:32:40.569Z,20.80
2018-01-05T22:34:33.536Z,20.87
2018-01-05T22:35:33.525Z,20.82
2018-01-05T22:37:26.342Z,20.78
2018-01-05T22:38:26.304Z,20.80
2018-01-05T22:40:19.334Z,20.77
2018-01-05T22:41:19.242Z,20.80
2018-01-05T22:43:12.224Z,20.78
2018-01-05T22:44:12.197Z,20.80
2018-01-05T22:46:05.502Z,20.81
2018-01-05T22:47:05.470Z,20.75
2018-01-05T22:48:58.415Z,20.80
2018-01-05T22:49:58.414Z,20.78
2018-01-05T22:51:51.616Z,20.77
2018-01-05T22:52:51.565Z,20.75
2018-01-05T22:54:44.566Z,20.81
2018-01-05T22:55:44.550Z,20.75
2018-01-05T22:57:37.784Z,20.77
2018-01-05T22:58:37.713Z,20.78
2018-01-05T23:00:30.530Z,20.77
2018-01-05T23:01:30.462Z,20.78
2018-01-05T23:03:23.463Z,20.78
2018-01-05T23:04:23.411Z,20.81
2018-01-05T23:06:16.703Z,20.80
2018-01-05T23:07:16.514Z,20.78
2018-01-05T23:09:09.485Z,20.72
2018-01-05T23:10:09.436Z,20.67
2018-01-05T23:12:02.380Z,20.65
2018-01-05T23:13:02.345Z,20.58
2018-01-05T23:14:55.629Z,20.59
2018-01-05T23:15:55.583Z,20.60
2018-01-05T23:17:48.545Z,20.67
2018-01-05T23:18:48.595Z,20.66
2018-01-05T23:20:41.347Z,20.56
2018-01-05T23:21:41.305Z,20.48
2018-01-05T23:23:34.195Z,20.47
2018-01-05T23:24:34.131Z,20.48
2018-01-05T23:26:27.146Z,20.48
2018-01-05T23:27:27.091Z,20.51
2018-01-05T23:29:19.908Z,20.47
2018-01-05T23:30:19.906Z,20.44
2018-01-05T23:32:12.834Z,20.43
2018-01-05T23:33:12.799Z,20.43
2018-01-05T23:35:05.649Z,20.41
2018-01-05T23:36:05.606Z,20.41
2018-01-05T23:37:58.555Z,20.44
2018-01-05T23:38:58.526Z,20.47
2018-01-05T23:40:51.495Z,20.43
2018-01-05T23:41:51.458Z,20.40
2018-01-05T23:43:44.753Z,20.36
2018-01-05T23:44:44.568Z,20.29
2018-01-05T23:46:37.556Z,20.32
2018-01-05T23:47:37.509Z,20.37
2018-01-05T23:49:30.473Z,20.36
2018-01-05T23:50:30.434Z,20.32
2018-01-05T23:52:23.284Z,20.36
2018-01-05T23:53:23.228Z,20.26
2018-01-05T23:55:16.251Z,20.31
2018-01-05T23:56:16.187Z,20.34
2018-01-05T23:58:09.145Z,20.28
2018-01-05T23:59:09.116Z,20.18
